Time;durP1;ratioP1;P1;durP2;ratioP2;P2;SDS_P1;SDS_P2;PMS_P1;PMS_P2;Temp;Humidity;BMP_temperature;BMP_pressure;BME280_temperature;BME280_humidity;BME280_pressure;Samples;Min_cycle;Max_cycle;Signal;HPM_P1;HPM_P2
2024/02/24 00:00:30;;;;;;;5.50;1.45;;;5.20;18.50;;;;;;5076662;28;20090;-70
2024/02/24 00:02:55;;;;;;;1.77;1.45;;;5.20;2.20;;;;;;5076313;28;20024;-70
2024/02/24 00:05:25;;;;;;;3.03;1.50;;;5.40;1.00;;;;;;5076412;28;20115;-70
2024/02/24 00:07:51;;;;;;;5.10;1.67;;;5.50;1.00;;;;;;5076368;28;20486;-70
2024/02/24 00:10:17;;;;;;;4.25;1.90;;;5.50;1.00;;;;;;5076299;28;20460;-70
2024/02/24 00:12:43;;;;;;;3.20;1.60;;;5.60;1.00;;;;;;5076202;28;20021;-70
2024/02/24 00:15:09;;;;;;;2.50;1.27;;;5.50;1.00;;;;;;5076118;28;20402;-70
2024/02/24 00:17:36;;;;;;;3.78;1.17;;;5.50;1.00;;;;;;5076271;28;20390;-70
2024/02/24 00:20:03;;;;;;;1.45;1.20;;;5.50;1.00;;;;;;5076267;28;20021;-70
2024/02/24 00:22:28;;;;;;;3.60;1.60;;;5.50;1.00;;;;;;5076219;28;20390;-70
2024/02/24 00:24:54;;;;;;;5.50;1.58;;;5.60;1.00;;;;;;5076181;28;20031;-70
2024/02/24 00:27:19;;;;;;;5.00;1.55;;;5.50;1.00;;;;;;5076100;28;20035;-70
2024/02/24 00:29:45;;;;;;;1.60;1.40;;;5.50;1.00;;;;;;5075655;28;20090;-70
2024/02/24 00:32:10;;;;;;;2.78;1.40;;;5.40;1.00;;;;;;5076046;28;20038;-70
2024/02/24 00:34:36;;;;;;;4.72;1.70;;;5.30;3.30;;;;;;5075881;28;20036;-70
2024/02/24 00:37:02;;;;;;;4.80;1.50;;;5.30;2.60;;;;;;5075919;28;20510;-70
2024/02/24 00:39:27;;;;;;;6.38;1.48;;;5.30;14.60;;;;;;5075969;28;20024;-70
2024/02/24 00:41:53;;;;;;;3.85;1.52;;;5.20;17.50;;;;;;5075711;28;20032;-70
2024/02/24 00:44:18;;;;;;;2.58;1.30;;;5.20;26.80;;;;;;5075591;28;20044;-70
2024/02/24 00:46:44;;;;;;;2.97;1.38;;;5.30;26.60;;;;;;5075823;28;20052;-70
2024/02/24 00:49:10;;;;;;;3.35;1.20;;;5.30;20.80;;;;;;5075323;28;20490;-70
2024/02/24 00:51:35;;;;;;;2.92;1.67;;;5.30;16.10;;;;;;5075016;28;20031;-71
2024/02/24 00:54:01;;;;;;;2.45;1.05;;;5.30;16.00;;;;;;5075083;28;20040;-70
2024/02/24 00:56:26;;;;;;;1.92;1.40;;;5.20;16.70;;;;;;5075257;28;20035;-70
2024/02/24 00:58:52;;;;;;;3.75;1.17;;;5.20;29.00;;;;;;5075478;28;20024;-70
2024/02/24 01:01:18;;;;;;;2.50;1.17;;;5.20;36.90;;;;;;5075404;28;20060;-70
2024/02/24 01:03:43;;;;;;;3.50;1.33;;;5.10;36.70;;;;;;5075249;28;20086;-70
2024/02/24 01:06:09;;;;;;;3.17;1.40;;;5.10;34.60;;;;;;5075435;28;20025;-70
2024/02/24 01:08:34;;;;;;;1.98;1.25;;;5.10;38.00;;;;;;5074941;28;20059;-70
2024/02/24 01:11:00;;;;;;;3.15;1.27;;;5.00;41.00;;;;;;5075198;28;20039;-70
2024/02/24 01:13:25;;;;;;;2.10;1.38;;;5.10;50.10;;;;;;5075175;28;20029;-70
2024/02/24 01:15:51;;;;;;;3.20;1.40;;;5.10;46.30;;;;;;5074874;28;20051;-70
2024/02/24 01:18:17;;;;;;;3.30;1.08;;;5.00;54.30;;;;;;5075123;28;20060;-70
2024/02/24 01:20:48;;;;;;;5.00;1.35;;;5.10;66.60;;;;;;5074993;28;20068;-70
2024/02/24 01:23:15;;;;;;;1.83;1.05;;;5.00;59.90;;;;;;5075016;28;20074;-70
2024/02/24 01:25:41;;;;;;;1.70;1.30;;;5.00;55.00;;;;;;5074875;28;20031;-70
2024/02/24 01:28:06;;;;;;;1.77;1.17;;;5.00;61.60;;;;;;5074978;28;20028;-70
2024/02/24 01:30:32;;;;;;;2.42;1.40;;;4.90;59.80;;;;;;5074966;28;20032;-70
2024/02/24 01:32:58;;;;;;;2.20;1.38;;;4.80;65.70;;;;;;5074785;28;20115;-70
2024/02/24 01:35:23;;;;;;;2.22;1.00;;;4.80;74.80;;;;;;5074475;28;20417;-70
2024/02/24 01:37:49;;;;;;;1.40;1.02;;;4.80;93.00;;;;;;5074725;28;20032;-70
2024/02/24 01:40:14;;;;;;;2.28;1.20;;;4.70;95.40;;;;;;5074730;28;20032;-70
2024/02/24 01:42:43;;;;;;;4.13;1.23;;;4.70;99.90;;;;;;5074111;28;20109;-70
2024/02/24 01:45:10;;;;;;;1.58;1.23;;;4.80;99.90;;;;;;5074723;28;20036;-70
2024/02/24 01:47:35;;;;;;;1.42;0.90;;;4.70;99.90;;;;;;5074622;28;20482;-70
2024/02/24 01:50:02;;;;;;;1.88;1.50;;;4.70;99.90;;;;;;5074501;28;20034;-70
2024/02/24 01:52:28;;;;;;;2.05;1.30;;;4.70;99.90;;;;;;5074196;28;20068;-70
2024/02/24 01:54:58;;;;;;;6.88;1.98;;;4.70;99.90;;;;;;5074010;28;20032;-70
2024/02/24 01:57:25;;;;;;;3.10;1.55;;;4.60;99.90;;;;;;5074216;28;20074;-70
2024/02/24 01:59:51;;;;;;;2.72;1.60;;;4.60;99.90;;;;;;5073784;28;20028;-70
2024/02/24 02:02:17;;;;;;;4.00;1.90;;;4.60;99.90;;;;;;5074227;28;20025;-70
2024/02/24 02:04:42;;;;;;;4.05;1.98;;;4.70;99.90;;;;;;5073723;28;20028;-70
2024/02/24 02:07:08;;;;;;;2.47;1.60;;;4.60;99.90;;;;;;5073894;28;20036;-70
2024/02/24 02:09:33;;;;;;;2.72;1.50;;;4.60;99.90;;;;;;5073979;28;20036;-70
2024/02/24 02:11:59;;;;;;;2.10;1.40;;;4.60;99.90;;;;;;5074091;28;20032;-70
2024/02/24 02:14:25;;;;;;;1.95;1.50;;;4.60;99.90;;;;;;5073939;28;20036;-70
2024/02/24 02:16:50;;;;;;;2.53;1.45;;;4.60;99.90;;;;;;5073901;28;20047;-71
2024/02/24 02:19:16;;;;;;;3.15;1.40;;;4.50;99.90;;;;;;5073841;28;20482;-70
2024/02/24 02:21:44;;;;;;;2.00;1.60;;;4.50;99.90;;;;;;5073802;28;20029;-70
2024/02/24 02:24:10;;;;;;;3.17;1.40;;;4.50;99.90;;;;;;5073784;28;20029;-70
2024/02/24 02:26:36;;;;;;;1.85;1.40;;;4.50;99.90;;;;;;5073783;28;20036;-70
2024/02/24 02:29:02;;;;;;;6.20;1.70;;;4.50;99.90;;;;;;5073859;28;20567;-70
2024/02/24 02:31:27;;;;;;;3.40;1.98;;;4.50;99.90;;;;;;5073910;28;20059;-70
2024/02/24 02:33:53;;;;;;;5.18;2.00;;;4.40;99.90;;;;;;5073124;28;20024;-70
2024/02/24 02:36:18;;;;;;;3.72;2.15;;;4.40;99.90;;;;;;5073176;28;20082;-70
2024/02/24 02:38:44;;;;;;;3.25;1.77;;;4.20;99.90;;;;;;5073395;28;20483;-70
2024/02/24 02:41:10;;;;;;;2.15;1.50;;;4.10;99.90;;;;;;5073018;28;20028;-70
2024/02/24 02:43:35;;;;;;;2.35;1.70;;;4.00;99.90;;;;;;5073549;28;20028;-70
2024/02/24 02:46:01;;;;;;;3.45;1.92;;;3.90;99.90;;;;;;5072957;28;20027;-70
2024/02/24 02:48:27;;;;;;;2.05;1.67;;;3.80;99.90;;;;;;5073379;28;20033;-70
2024/02/24 02:50:52;;;;;;;5.63;2.03;;;3.70;99.90;;;;;;5073265;28;20173;-70
2024/02/24 02:53:18;;;;;;;2.53;1.88;;;3.60;99.90;;;;;;5073036;28;20052;-70
2024/02/24 02:55:44;;;;;;;2.42;1.80;;;3.50;99.90;;;;;;5072968;28;20039;-70
2024/02/24 02:58:11;;;;;;;2.92;1.83;;;3.40;99.90;;;;;;5073408;28;20105;-70
2024/02/24 03:00:37;;;;;;;4.22;2.20;;;3.30;99.90;;;;;;5073319;28;20540;-70
2024/02/24 03:03:02;;;;;;;3.05;1.70;;;3.30;99.90;;;;;;5072908;28;20025;-70
2024/02/24 03:05:28;;;;;;;4.47;1.90;;;3.20;99.90;;;;;;5073360;28;20151;-70
2024/02/24 03:07:53;;;;;;;3.85;2.00;;;3.20;99.90;;;;;;5073121;28;20124;-70
2024/02/24 03:10:19;;;;;;;3.70;2.13;;;3.10;99.90;;;;;;5073054;28;20158;-70
2024/02/24 03:12:45;;;;;;;4.18;2.15;;;3.20;99.90;;;;;;5073105;28;20033;-70
2024/02/24 03:15:10;;;;;;;2.95;1.95;;;3.10;99.90;;;;;;5073002;28;20043;-70
2024/02/24 03:17:36;;;;;;;2.20;1.90;;;3.20;99.90;;;;;;5072485;28;20443;-70
2024/02/24 03:20:03;;;;;;;2.78;1.60;;;3.20;99.90;;;;;;5073145;28;20041;-70
2024/02/24 03:22:29;;;;;;;2.47;2.10;;;3.10;99.90;;;;;;5073203;28;20441;-70
2024/02/24 03:24:54;;;;;;;2.42;1.92;;;3.00;99.90;;;;;;5072535;28;20025;-70
2024/02/24 03:27:20;;;;;;;5.22;2.45;;;3.00;99.90;;;;;;5072914;28;20085;-70
2024/02/24 03:29:45;;;;;;;7.85;4.45;;;2.90;99.90;;;;;;5073054;28;20391;-70
2024/02/24 03:32:11;;;;;;;9.07;4.90;;;2.90;99.90;;;;;;5072835;28;20036;-70
2024/02/24 03:34:37;;;;;;;8.07;5.22;;;3.00;99.90;;;;;;5072973;28;20037;-70
2024/02/24 03:37:04;;;;;;;9.65;5.93;;;3.00;99.90;;;;;;5073032;28;20501;-70
2024/02/24 03:39:29;;;;;;;8.48;5.93;;;3.10;99.90;;;;;;5072896;28;20065;-70
2024/02/24 03:41:55;;;;;;;6.47;4.88;;;3.10;99.90;;;;;;5072902;28;20085;-70
2024/02/24 03:44:20;;;;;;;7.57;4.05;;;3.00;99.90;;;;;;5072363;28;20592;-70
2024/02/24 03:46:46;;;;;;;3.42;2.53;;;3.00;99.90;;;;;;5072755;28;20047;-70
2024/02/24 03:49:12;;;;;;;7.80;3.45;;;3.00;99.90;;;;;;5072917;28;20025;-70
2024/02/24 03:51:37;;;;;;;165.85;72.05;;;3.10;99.90;;;;;;5072556;28;20028;-70
2024/02/24 03:54:03;;;;;;;52.90;25.10;;;3.20;99.90;;;;;;5072720;28;20553;-70
2024/02/24 03:56:28;;;;;;;45.70;22.52;;;3.20;99.90;;;;;;5072742;28;20036;-70
2024/02/24 03:58:54;;;;;;;42.90;23.33;;;3.20;99.90;;;;;;5072652;28;20525;-70
2024/02/24 04:01:19;;;;;;;42.67;23.17;;;3.30;99.90;;;;;;5072686;28;20086;-70
2024/02/24 04:03:45;;;;;;;18.40;10.00;;;3.20;99.90;;;;;;5072719;28;20021;-70
2024/02/24 04:06:11;;;;;;;7.03;4.57;;;3.20;99.90;;;;;;5072605;28;20498;-70
2024/02/24 04:08:36;;;;;;;7.32;3.85;;;3.10;99.90;;;;;;5072675;28;20025;-70
2024/02/24 04:11:03;;;;;;;8.20;2.78;;;3.10;99.90;;;;;;5072524;28;20535;-70
2024/02/24 04:13:28;;;;;;;4.35;2.55;;;3.10;99.90;;;;;;5072594;28;20032;-70
2024/02/24 04:15:54;;;;;;;6.38;3.53;;;3.00;99.90;;;;;;5072232;28;20088;-70
2024/02/24 04:18:20;;;;;;;12.90;6.80;;;3.00;99.90;;;;;;5072077;28;20031;-70
2024/02/24 04:20:46;;;;;;;6.82;4.13;;;3.00;99.90;;;;;;5072599;28;20023;-70
2024/02/24 04:23:13;;;;;;;5.50;4.03;;;3.00;99.90;;;;;;5072494;28;20060;-70
2024/02/24 04:25:38;;;;;;;7.88;4.70;;;3.10;99.90;;;;;;5072563;28;20068;-70
2024/02/24 04:28:05;;;;;;;12.43;8.73;;;3.10;99.90;;;;;;5072403;28;20071;-70
2024/02/24 04:30:30;;;;;;;9.02;6.72;;;3.20;99.90;;;;;;5074083;28;20031;-70
2024/02/24 04:32:56;;;;;;;8.48;6.25;;;3.20;99.90;;;;;;5076085;28;20390;-70
2024/02/24 04:35:23;;;;;;;5.72;4.20;;;3.20;99.90;;;;;;5075454;28;20482;-70
2024/02/24 04:37:49;;;;;;;7.93;4.82;;;3.20;99.90;;;;;;5075474;28;20592;-70
2024/02/24 04:40:15;;;;;;;8.15;5.97;;;3.30;99.90;;;;;;5075442;28;20051;-70
2024/02/24 04:42:40;;;;;;;6.75;5.50;;;3.30;99.90;;;;;;5075602;28;20028;-70
2024/02/24 04:45:06;;;;;;;20.73;13.70;;;3.30;99.90;;;;;;5075620;28;20036;-70
2024/02/24 04:47:32;;;;;;;27.75;19.02;;;3.40;99.90;;;;;;5075748;28;20432;-70
2024/02/24 04:49:58;;;;;;;22.35;14.35;;;3.40;99.90;;;;;;5075685;28;20033;-70
2024/02/24 04:52:24;;;;;;;15.85;12.18;;;3.40;99.90;;;;;;5074960;28;20040;-70
2024/02/24 04:54:50;;;;;;;10.98;7.68;;;3.50;99.90;;;;;;5075369;28;20048;-70
2024/02/24 04:57:15;;;;;;;7.93;5.78;;;3.40;99.90;;;;;;5074990;28;20016;-70
2024/02/24 04:59:41;;;;;;;6.20;4.65;;;3.40;99.90;;;;;;5075553;28;20031;-70
2024/02/24 05:02:07;;;;;;;6.40;3.88;;;3.40;99.90;;;;;;5075485;28;20584;-70
2024/02/24 05:04:32;;;;;;;5.78;4.10;;;3.40;99.90;;;;;;5075485;28;20116;-70
2024/02/24 05:06:58;;;;;;;3.60;2.60;;;3.40;99.90;;;;;;5075343;28;20036;-70
2024/02/24 05:09:23;;;;;;;5.10;3.13;;;3.40;99.90;;;;;;5075332;28;20363;-70
2024/02/24 05:11:49;;;;;;;4.72;2.65;;;3.40;99.90;;;;;;5075186;28;20024;-70
2024/02/24 05:14:18;;;;;;;2.65;1.77;;;3.30;99.90;;;;;;5075122;28;20111;-70
2024/02/24 05:16:44;;;;;;;5.53;2.85;;;3.40;99.90;;;;;;5075163;28;20077;-70
2024/02/24 05:19:10;;;;;;;5.30;2.53;;;3.40;99.90;;;;;;5075154;28;20034;-70
2024/02/24 05:21:36;;;;;;;4.60;2.50;;;3.50;99.90;;;;;;5075211;28;20467;-70
2024/02/24 05:24:02;;;;;;;3.42;1.88;;;3.60;99.90;;;;;;5075052;28;20021;-70
2024/02/24 05:26:29;;;;;;;2.35;2.05;;;3.90;99.90;;;;;;5074898;28;20058;-70
2024/02/24 05:28:56;;;;;;;4.15;2.00;;;4.00;99.90;;;;;;5074922;28;20548;-70
2024/02/24 05:31:22;;;;;;;2.58;1.67;;;4.10;99.90;;;;;;5074736;28;20021;-70
2024/02/24 05:33:50;;;;;;;1.90;1.50;;;4.20;99.90;;;;;;5074881;28;20058;-70
2024/02/24 05:36:17;;;;;;;1.92;1.45;;;4.30;99.90;;;;;;5074494;28;20573;-70
2024/02/24 05:38:43;;;;;;;1.80;1.42;;;4.30;99.90;;;;;;5074720;28;20466;-70
2024/02/24 05:41:09;;;;;;;1.85;1.55;;;4.30;99.90;;;;;;5074351;28;20082;-70
2024/02/24 05:43:35;;;;;;;2.70;1.67;;;4.40;99.90;;;;;;5074737;28;20039;-70
2024/02/24 05:46:06;;;;;;;2.58;1.60;;;4.30;99.90;;;;;;5074752;28;20028;-70
2024/02/24 05:48:34;;;;;;;2.45;1.40;;;4.30;99.90;;;;;;5074699;28;20036;-70
2024/02/24 05:51:00;;;;;;;3.30;1.40;;;4.40;99.90;;;;;;5074318;28;20027;-70
2024/02/24 05:53:26;;;;;;;1.40;1.25;;;4.50;99.90;;;;;;5073818;28;20044;-70
2024/02/24 05:55:51;;;;;;;1.63;1.38;;;4.60;99.90;;;;;;5074063;28;20478;-70
2024/02/24 05:58:17;;;;;;;2.03;1.40;;;4.60;99.90;;;;;;5073946;28;20032;-70
2024/02/24 06:00:43;;;;;;;3.17;1.52;;;4.70;99.90;;;;;;5073926;28;20025;-70
2024/02/24 06:03:11;;;;;;;1.67;1.00;;;4.80;99.90;;;;;;5074337;28;20032;-70
2024/02/24 06:05:37;;;;;;;1.20;1.15;;;4.80;99.90;;;;;;5073734;28;20124;-70
2024/02/24 06:08:04;;;;;;;3.30;1.30;;;5.00;99.90;;;;;;5074219;28;20072;-70
2024/02/24 06:10:30;;;;;;;2.30;1.30;;;5.10;99.90;;;;;;5074036;28;20028;-70
2024/02/24 06:12:55;;;;;;;3.13;1.20;;;5.20;99.90;;;;;;5074041;28;20040;-70
2024/02/24 06:15:21;;;;;;;2.45;1.50;;;5.20;99.90;;;;;;5073736;28;20559;-70
2024/02/24 06:17:46;;;;;;;2.22;1.10;;;5.20;99.90;;;;;;5073809;28;20483;-70
2024/02/24 06:20:12;;;;;;;2.90;1.50;;;5.20;99.90;;;;;;5073755;28;20477;-70
2024/02/24 06:22:38;;;;;;;1.27;1.02;;;5.30;99.90;;;;;;5073581;28;20020;-70
2024/02/24 06:25:05;;;;;;;5.68;1.67;;;5.30;99.30;;;;;;5073789;28;20491;-70
2024/02/24 06:27:31;;;;;;;2.88;1.75;;;5.20;97.20;;;;;;5073786;28;20048;-71
2024/02/24 06:29:57;;;;;;;2.70;1.50;;;5.30;97.00;;;;;;5073721;28;20036;-71
2024/02/24 06:32:23;;;;;;;2.47;1.33;;;5.30;95.20;;;;;;5073127;28;20020;-70
2024/02/24 06:34:49;;;;;;;3.15;1.60;;;5.30;93.90;;;;;;5073357;28;20474;-70
2024/02/24 06:37:14;;;;;;;1.50;1.25;;;5.20;92.50;;;;;;5073105;28;20117;-70
2024/02/24 06:39:40;;;;;;;2.25;1.38;;;5.20;93.00;;;;;;5073376;28;20082;-72
2024/02/24 06:42:06;;;;;;;2.63;1.60;;;5.20;93.40;;;;;;5073590;28;20020;-70
2024/02/24 06:44:31;;;;;;;2.58;1.48;;;5.10;94.00;;;;;;5073051;28;20060;-70
2024/02/24 06:46:57;;;;;;;3.63;1.90;;;5.20;93.70;;;;;;5073314;28;20040;-70
2024/02/24 06:49:23;;;;;;;4.38;2.67;;;5.20;92.80;;;;;;5073467;28;20443;-70
2024/02/24 06:51:49;;;;;;;2.33;1.80;;;5.30;92.20;;;;;;5073050;28;20335;-70
2024/02/24 06:54:15;;;;;;;2.83;1.92;;;5.30;91.90;;;;;;5072825;28;20059;-70
2024/02/24 06:56:40;;;;;;;2.80;2.15;;;5.30;92.80;;;;;;5073302;28;20057;-71
2024/02/24 06:59:06;;;;;;;3.15;2.30;;;5.40;92.20;;;;;;5073284;28;20028;-71
2024/02/24 07:01:32;;;;;;;6.80;2.40;;;5.40;90.70;;;;;;5072846;28;20024;-71
2024/02/24 07:03:58;;;;;;;4.90;2.30;;;5.50;88.70;;;;;;5072809;28;20035;-71
2024/02/24 07:06:24;;;;;;;8.45;3.08;;;5.50;86.40;;;;;;5073076;28;20036;-70
2024/02/24 07:08:50;;;;;;;5.28;2.53;;;5.60;85.30;;;;;;5073209;28;20052;-70
2024/02/24 07:11:16;;;;;;;2.90;2.20;;;5.60;77.00;;;;;;5073096;28;20024;-70
2024/02/24 07:13:41;;;;;;;3.88;1.85;;;5.70;73.90;;;;;;5073136;28;20024;-71
2024/02/24 07:16:08;;;;;;;2.83;2.05;;;5.70;68.50;;;;;;5072969;28;20028;-70
2024/02/24 07:18:33;;;;;;;3.42;2.25;;;5.80;68.00;;;;;;5072761;28;20494;-71
2024/02/24 07:21:01;;;;;;;2.85;1.70;;;5.80;62.60;;;;;;5073027;28;20032;-70
2024/02/24 07:23:27;;;;;;;2.03;1.52;;;5.90;59.30;;;;;;5073099;28;20098;-70
2024/02/24 07:25:53;;;;;;;2.58;1.85;;;5.90;56.60;;;;;;5073324;28;20029;-70
2024/02/24 07:28:18;;;;;;;2.92;1.77;;;5.90;54.80;;;;;;5073050;28;20086;-71
2024/02/24 07:30:44;;;;;;;1.67;1.58;;;6.00;53.10;;;;;;5073028;28;20033;-70
2024/02/24 07:33:10;;;;;;;2.75;1.95;;;6.00;51.00;;;;;;5072938;28;20536;-71
2024/02/24 07:35:35;;;;;;;2.17;1.80;;;6.00;49.70;;;;;;5072921;28;20024;-70
2024/02/24 07:38:01;;;;;;;2.67;1.83;;;6.10;47.10;;;;;;5072911;28;20029;-70
2024/02/24 07:40:27;;;;;;;2.05;1.63;;;6.10;46.10;;;;;;5072908;28;20107;-70
2024/02/24 07:42:54;;;;;;;2.88;1.70;;;6.10;47.70;;;;;;5072850;28;20386;-70
2024/02/24 07:45:22;;;;;;;4.05;1.80;;;6.10;44.30;;;;;;5072809;28;20082;-70
2024/02/24 07:47:48;;;;;;;2.38;1.70;;;6.10;41.40;;;;;;5072521;28;20033;-70
2024/02/24 07:50:14;;;;;;;2.83;2.00;;;6.10;40.30;;;;;;5072901;28;20037;-70
2024/02/24 07:52:39;;;;;;;3.17;1.85;;;6.20;40.40;;;;;;5072400;28;20090;-71
2024/02/24 07:55:06;;;;;;;2.20;1.77;;;6.20;41.90;;;;;;5072647;28;20467;-70
2024/02/24 07:57:32;;;;;;;6.10;2.05;;;6.20;34.60;;;;;;5072731;28;20029;-71
2024/02/24 07:59:57;;;;;;;2.80;2.10;;;6.30;28.40;;;;;;5072629;28;20033;-70
2024/02/24 08:02:23;;;;;;;6.47;2.53;;;6.30;27.40;;;;;;5072606;28;20021;-70
2024/02/24 08:04:49;;;;;;;3.83;2.08;;;6.40;24.60;;;;;;5074638;28;20031;-71
2024/02/24 08:07:15;;;;;;;2.85;1.70;;;6.30;28.00;;;;;;5076050;28;20025;-71
2024/02/24 08:09:40;;;;;;;2.63;2.00;;;6.30;19.60;;;;;;5076418;28;20039;-71
2024/02/24 08:12:06;;;;;;;3.40;2.00;;;6.40;18.10;;;;;;5076543;28;20032;-70
2024/02/24 08:14:32;;;;;;;4.63;2.30;;;6.40;4.30;;;;;;5076121;28;20505;-70
2024/02/24 08:16:58;;;;;;;3.97;1.73;;;6.50;1.00;;;;;;5075897;28;20318;-70
2024/02/24 08:19:23;;;;;;;5.60;1.77;;;6.50;2.10;;;;;;5076283;28;20466;-70
2024/02/24 08:21:49;;;;;;;3.60;2.15;;;6.50;1.00;;;;;;5076113;28;20416;-71
2024/02/24 08:24:16;;;;;;;3.55;1.75;;;6.60;1.00;;;;;;5076201;28;20032;-71
2024/02/24 08:26:44;;;;;;;5.32;2.00;;;6.60;1.00;;;;;;5076134;28;20434;-70
2024/02/24 08:29:10;;;;;;;2.40;1.70;;;6.70;1.00;;;;;;5076087;28;20032;-71
2024/02/24 08:31:36;;;;;;;4.15;1.70;;;6.80;1.00;;;;;;5076108;28;20032;-70
2024/02/24 08:34:02;;;;;;;5.95;1.60;;;6.90;1.00;;;;;;5075855;28;20026;-70
2024/02/24 08:36:28;;;;;;;2.67;1.58;;;6.90;1.00;;;;;;5075676;28;20398;-70
2024/02/24 08:38:53;;;;;;;1.88;1.67;;;7.10;1.00;;;;;;5075836;28;20028;-70
2024/02/24 08:41:19;;;;;;;2.85;1.80;;;7.10;1.00;;;;;;5075873;28;20494;-70
2024/02/24 08:43:45;;;;;;;2.20;1.67;;;7.20;1.00;;;;;;5075856;28;20475;-70
2024/02/24 08:46:10;;;;;;;2.67;1.73;;;7.20;1.00;;;;;;5075817;28;20028;-71
2024/02/24 08:48:36;;;;;;;3.20;1.70;;;7.40;1.00;;;;;;5075805;28;20533;-70
2024/02/24 08:51:03;;;;;;;1.83;1.60;;;7.30;1.00;;;;;;5075592;28;20124;-71
2024/02/24 08:53:29;;;;;;;4.07;1.70;;;7.30;1.00;;;;;;5075280;28;20414;-70
2024/02/24 08:55:55;;;;;;;1.95;1.83;;;7.40;1.00;;;;;;5075226;28;20115;-71
2024/02/24 08:58:20;;;;;;;4.22;1.70;;;7.60;1.00;;;;;;5075528;28;20063;-71
2024/02/24 09:00:46;;;;;;;2.40;2.00;;;7.70;1.00;;;;;;5075414;28;20032;-70
2024/02/24 09:03:11;;;;;;;4.18;1.73;;;7.90;1.00;;;;;;5075484;28;20025;-70
2024/02/24 09:05:37;;;;;;;2.97;1.50;;;8.10;1.00;;;;;;5075533;28;20029;-70
2024/02/24 09:08:03;;;;;;;1.58;1.30;;;8.20;99.90;;;;;;5075311;28;20479;-70
2024/02/24 09:10:29;;;;;;;3.35;1.30;;;8.30;99.90;;;;;;5075315;28;20166;-70
2024/02/24 09:12:55;;;;;;;3.10;1.63;;;8.30;99.90;;;;;;5074851;28;20512;-70
2024/02/24 09:15:20;;;;;;;3.92;1.70;;;8.20;99.90;;;;;;5074213;28;20029;-70
2024/02/24 09:17:46;;;;;;;1.70;1.08;;;8.10;99.90;;;;;;5075199;28;20514;-70
2024/02/24 09:20:12;;;;;;;1.80;1.20;;;8.00;99.90;;;;;;5075216;28;20021;-70
2024/02/24 09:22:37;;;;;;;3.22;1.23;;;7.90;1.00;;;;;;5074800;28;20028;-71
2024/02/24 09:25:03;;;;;;;1.30;1.10;;;7.70;1.00;;;;;;5074922;28;20486;-70
2024/02/24 09:27:29;;;;;;;1.60;1.20;;;7.60;99.90;;;;;;5074963;28;20044;-70
2024/02/24 09:29:55;;;;;;;2.40;1.05;;;7.50;99.90;;;;;;5075176;28;20033;-70
2024/02/24 09:32:20;;;;;;;2.60;1.02;;;7.40;99.90;;;;;;5074875;28;20032;-70
2024/02/24 09:34:46;;;;;;;3.78;0.90;;;7.40;1.00;;;;;;5074315;28;20029;-70
2024/02/24 09:37:12;;;;;;;2.58;1.02;;;7.30;99.90;;;;;;5074834;28;20021;-71
2024/02/24 09:39:41;;;;;;;2.33;0.95;;;7.30;59.10;;;;;;5075029;28;20021;-71
2024/02/24 09:42:09;;;;;;;1.33;1.08;;;7.40;99.90;;;;;;5074767;28;20025;-70
2024/02/24 09:44:35;;;;;;;2.17;0.90;;;7.50;1.00;;;;;;5074778;28;20071;-71
2024/02/24 09:47:02;;;;;;;1.92;0.80;;;7.50;99.90;;;;;;5074494;28;20020;-70
2024/02/24 09:49:30;;;;;;;2.90;1.27;;;7.60;99.90;;;;;;5074505;28;20491;-71
2024/02/24 09:51:56;;;;;;;2.40;1.10;;;7.60;1.00;;;;;;5074194;28;20044;-71
2024/02/24 09:54:22;;;;;;;1.60;0.77;;;7.50;1.00;;;;;;5073790;28;20032;-70
2024/02/24 09:56:52;;;;;;;2.78;0.90;;;7.50;99.90;;;;;;5074493;28;20366;-70
2024/02/24 09:59:20;;;;;;;1.20;0.80;;;7.20;1.00;;;;;;5074451;28;20025;-71
2024/02/24 10:01:47;;;;;;;1.17;0.80;;;7.10;99.90;;;;;;5074271;28;20031;-71
2024/02/24 10:04:14;;;;;;;1.50;1.10;;;6.90;1.00;;;;;;5074224;28;20020;-71
2024/02/24 10:06:41;;;;;;;2.35;0.85;;;6.60;1.00;;;;;;5074188;28;20032;-71
2024/02/24 10:09:07;;;;;;;1.70;1.08;;;6.30;12.70;;;;;;5074124;28;20036;-70
2024/02/24 10:11:35;;;;;;;1.80;0.90;;;6.30;59.30;;;;;;5073759;28;20394;-70
2024/02/24 10:14:01;;;;;;;2.63;0.90;;;6.50;99.10;;;;;;5074202;28;20394;-70
2024/02/24 10:16:27;;;;;;;1.75;0.98;;;6.80;99.70;;;;;;5073721;28;20024;-70
2024/02/24 10:18:53;;;;;;;1.90;0.80;;;6.90;8.30;;;;;;5074015;28;20032;-70
2024/02/24 10:21:19;;;;;;;1.48;0.70;;;6.80;11.70;;;;;;5074168;28;20028;-70
2024/02/24 10:23:46;;;;;;;0.93;0.70;;;6.80;1.00;;;;;;5074083;28;20021;-70
2024/02/24 10:26:12;;;;;;;1.00;0.90;;;6.70;1.00;;;;;;5073684;28;20046;-70
2024/02/24 10:28:39;;;;;;;0.90;0.90;;;6.70;1.00;;;;;;5073518;28;20111;-70
2024/02/24 10:31:06;;;;;;;1.27;1.05;;;6.60;1.00;;;;;;5073468;28;20029;-70
2024/02/24 10:33:33;;;;;;;2.90;1.30;;;6.60;1.00;;;;;;5073733;28;20051;-71
2024/02/24 10:35:59;;;;;;;1.23;0.90;;;6.50;1.00;;;;;;5073457;28;20028;-71
2024/02/24 10:38:26;;;;;;;1.25;1.02;;;6.50;19.20;;;;;;5073402;28;20076;-70
2024/02/24 10:40:55;;;;;;;1.20;1.10;;;6.40;50.20;;;;;;5073720;28;20027;-70
2024/02/24 10:43:21;;;;;;;1.85;1.67;;;6.30;29.80;;;;;;5073212;28;20021;-70
2024/02/24 10:45:47;;;;;;;1.25;1.05;;;6.50;62.70;;;;;;5073726;28;20116;-71
2024/02/24 10:48:12;;;;;;;1.08;0.93;;;6.70;16.50;;;;;;5073648;28;20390;-70
2024/02/24 10:50:39;;;;;;;1.33;1.02;;;6.70;1.00;;;;;;5073648;28;20036;-70
2024/02/24 10:53:06;;;;;;;2.25;1.00;;;6.70;1.00;;;;;;5073048;28;20505;-70
2024/02/24 10:55:36;;;;;;;1.10;1.00;;;6.70;1.00;;;;;;5073480;28;20055;-70
2024/02/24 10:58:01;;;;;;;1.20;1.10;;;6.70;1.00;;;;;;5073442;28;20103;-70
2024/02/24 11:00:31;;;;;;;1.33;1.23;;;6.60;1.00;;;;;;5073441;28;20120;-70
2024/02/24 11:02:58;;;;;;;1.30;1.20;;;6.80;1.00;;;;;;5072980;28;20395;-71
2024/02/24 11:05:25;;;;;;;1.40;1.30;;;7.10;1.00;;;;;;5073343;28;20035;-71
2024/02/24 11:07:51;;;;;;;1.98;1.20;;;7.50;99.90;;;;;;5073308;28;20020;-70
2024/02/24 11:10:19;;;;;;;1.15;0.93;;;7.60;99.90;;;;;;5072996;28;20032;-71
2024/02/24 11:12:45;;;;;;;1.30;1.20;;;7.70;1.00;;;;;;5073273;28;20058;-71
2024/02/24 11:15:20;;;;;;;1.40;1.30;;;7.70;1.00;;;;;;5073144;28;20037;-71
2024/02/24 11:17:51;;;;;;;1.55;1.27;;;7.40;1.00;;;;;;5073239;28;20112;-70
2024/02/24 11:23:32;;;;;;;1.40;1.30;;;7.30;1.00;;;;;;5111072;27;20311;-72
2024/02/24 11:29:07;;;;;;;3.15;2.08;;;7.30;18.50;;;;;;5070534;28;20445;-70
2024/02/24 11:31:35;;;;;;;1.88;1.75;;;7.00;28.80;;;;;;5070638;28;20068;-69
2024/02/24 11:34:05;;;;;;;2.35;2.05;;;7.00;99.90;;;;;;5070253;28;20509;-70
2024/02/24 11:36:33;;;;;;;3.13;1.90;;;6.90;99.90;;;;;;5070638;28;20406;-70
2024/02/24 11:38:59;;;;;;;1.63;1.40;;;6.80;16.60;;;;;;5070524;28;20482;-70
2024/02/24 11:41:29;;;;;;;4.07;1.75;;;6.10;1.00;;;;;;5070437;28;20037;-70
2024/02/24 11:43:54;;;;;;;2.95;1.48;;;5.90;29.80;;;;;;5070466;28;20075;-72
2024/02/24 11:46:20;;;;;;;1.80;1.30;;;5.70;18.30;;;;;;5070304;28;20032;-71
2024/02/24 11:48:46;;;;;;;1.92;1.45;;;5.60;47.30;;;;;;5070067;28;20043;-72
2024/02/24 11:51:11;;;;;;;3.05;2.10;;;5.60;91.10;;;;;;5070340;28;20116;-72
2024/02/24 11:53:37;;;;;;;2.95;2.40;;;5.50;96.30;;;;;;5070297;28;20044;-71
2024/02/24 11:56:03;;;;;;;5.72;3.10;;;5.40;99.90;;;;;;5070157;28;20048;-71
2024/02/24 11:58:29;;;;;;;5.72;3.30;;;5.60;99.90;;;;;;5070188;28;20117;-71
2024/02/24 12:00:55;;;;;;;5.32;2.80;;;5.70;99.90;;;;;;5069985;28;20091;-71
2024/02/24 12:03:21;;;;;;;3.47;1.92;;;5.90;99.90;;;;;;5069517;28;20025;-72
2024/02/24 12:05:47;;;;;;;4.95;2.65;;;6.00;99.90;;;;;;5069972;28;20391;-71
2024/02/24 12:08:19;;;;;;;4.60;2.45;;;6.20;99.90;;;;;;5069651;28;20032;-71
2024/02/24 12:10:45;;;;;;;4.93;2.63;;;6.20;94.80;;;;;;5069845;28;20021;-71
2024/02/24 12:13:13;;;;;;;4.43;2.22;;;6.10;94.00;;;;;;5069558;28;20390;-71
2024/02/24 12:15:42;;;;;;;3.90;1.98;;;6.20;94.80;;;;;;5069778;28;20085;-71
2024/02/24 12:18:08;;;;;;;5.07;2.10;;;6.30;93.00;;;;;;5069290;28;20021;-71
2024/02/24 12:20:37;;;;;;;2.88;1.90;;;6.30;86.10;;;;;;5069688;28;20094;-71
2024/02/24 12:23:06;;;;;;;3.67;2.28;;;6.40;68.90;;;;;;5069586;28;20024;-71
2024/02/24 12:25:32;;;;;;;6.40;1.90;;;6.60;84.40;;;;;;5069163;28;20037;-71
2024/02/24 12:27:59;;;;;;;4.68;2.08;;;6.70;73.10;;;;;;5069183;28;20495;-72
2024/02/24 12:30:26;;;;;;;7.38;1.83;;;6.90;40.40;;;;;;5069507;28;20028;-72
2024/02/24 12:32:53;;;;;;;5.70;1.85;;;6.80;34.90;;;;;;5069187;28;20020;-73
2024/02/24 12:35:22;;;;;;;4.13;1.83;;;7.00;36.10;;;;;;5069313;28;20025;-72
2024/02/24 12:37:51;;;;;;;5.85;2.65;;;7.30;25.30;;;;;;5069366;28;20548;-72
2024/02/24 12:40:34;;;;;;;4.15;1.85;;;7.50;8.20;;;;;;5055706;28;20557;-72
2024/02/24 12:43:03;;;;;;;5.70;2.22;;;7.30;1.00;;;;;;5055628;28;20391;-72
2024/02/24 12:45:29;;;;;;;2.78;1.80;;;7.50;1.00;;;;;;5035685;28;20119;-73
2024/02/24 12:47:55;;;;;;;6.07;2.58;;;7.70;1.00;;;;;;5035538;28;20077;-72
2024/02/24 12:50:22;;;;;;;2.15;1.95;;;7.80;1.00;;;;;;5035934;28;20029;-73
2024/02/24 12:52:49;;;;;;;4.05;1.90;;;7.80;1.00;;;;;;5035868;28;20033;-72
2024/02/24 12:55:16;;;;;;;2.30;1.85;;;8.10;1.00;;;;;;5035994;28;20379;-73
2024/02/24 12:57:41;;;;;;;2.70;2.00;;;8.20;63.70;;;;;;5036188;28;20434;-72